createdAt,value
2023-10-20T00:01:35.380Z,88.05
2023-10-20T00:03:39.379Z,88.99
2023-10-20T00:05:42.156Z,88.55
2023-10-20T00:07:47.853Z,88.62
2023-10-20T00:09:55.282Z,88.91
2023-10-20T00:12:00.503Z,89.46
2023-10-20T00:14:03.204Z,89.54
2023-10-20T00:16:06.913Z,89.24
2023-10-20T00:18:11.065Z,89.30
2023-10-20T00:20:14.672Z,90.48
2023-10-20T00:22:17.568Z,90.33
2023-10-20T00:24:20.773Z,90.33
2023-10-20T00:26:23.804Z,90.51
2023-10-20T00:28:26.961Z,90.26
2023-10-20T00:30:29.748Z,90.38
2023-10-20T00:32:41.541Z,89.96
2023-10-20T00:34:44.212Z,90.09
2023-10-20T00:36:47.524Z,90.10
2023-10-20T00:38:50.668Z,90.50
2023-10-20T00:40:54.442Z,90.62
2023-10-20T00:42:57.419Z,90.81
2023-10-20T00:45:00.309Z,91.04
2023-10-20T00:47:03.069Z,90.28
2023-10-20T00:49:05.983Z,90.67
2023-10-20T00:51:09.631Z,90.89
2023-10-20T00:53:13.356Z,90.35
2023-10-20T00:55:16.770Z,90.17
2023-10-20T00:57:20.924Z,90.55
2023-10-20T00:59:25.314Z,90.30
2023-10-20T01:01:28.505Z,90.17
2023-10-20T01:03:34.291Z,90.12
2023-10-20T01:05:38.866Z,89.52
2023-10-20T01:07:41.538Z,89.53
2023-10-20T01:09:45.469Z,88.90
2023-10-20T01:11:48.178Z,89.68
2023-10-20T01:13:55.190Z,88.72
2023-10-20T01:15:58.141Z,88.91
2023-10-20T01:18:01.134Z,88.55
2023-10-20T01:20:07.796Z,88.84
2023-10-20T01:22:10.888Z,88.65
2023-10-20T01:24:13.351Z,88.49
2023-10-20T01:26:16.069Z,88.18
2023-10-20T01:28:20.874Z,87.68
2023-10-20T01:30:23.565Z,88.36
2023-10-20T01:32:27.911Z,87.89
2023-10-20T01:34:31.137Z,87.51
2023-10-20T01:36:34.654Z,88.26
2023-10-20T01:38:37.169Z,88.30
2023-10-20T01:40:40.090Z,89.03
2023-10-20T01:42:42.780Z,89.05
2023-10-20T01:44:45.614Z,89.52
2023-10-20T01:46:51.187Z,88.94
2023-10-20T01:48:53.911Z,89.93
2023-10-20T01:50:57.170Z,89.58
2023-10-20T01:52:59.698Z,90.02
2023-10-20T01:55:02.354Z,89.58
2023-10-20T01:57:05.545Z,89.80
2023-10-20T01:59:08.241Z,89.51
2023-10-20T02:01:11.761Z,89.70
2023-10-20T02:03:14.820Z,89.51
2023-10-20T02:05:18.654Z,89.54
2023-10-20T02:07:21.636Z,89.92
2023-10-20T02:09:27.977Z,89.24
2023-10-20T02:11:30.463Z,89.80
2023-10-20T02:13:37.005Z,89.81
2023-10-20T02:15:47.606Z,89.34
2023-10-20T02:17:50.367Z,89.71
2023-10-20T02:19:53.483Z,89.56
2023-10-20T02:21:56.633Z,89.27
2023-10-20T02:23:59.809Z,89.09
2023-10-20T02:26:08.262Z,89.10
2023-10-20T02:28:11.942Z,88.79
2023-10-20T02:30:16.764Z,89.15
2023-10-20T02:32:19.485Z,88.47
2023-10-20T02:34:24.342Z,88.94
2023-10-20T02:36:27.150Z,88.51
2023-10-20T02:38:29.888Z,88.41
2023-10-20T02:40:32.713Z,88.28
2023-10-20T02:42:35.515Z,88.51
2023-10-20T02:44:39.482Z,88.77
2023-10-20T02:46:42.360Z,89.04
2023-10-20T02:48:45.431Z,88.43
2023-10-20T02:50:48.768Z,88.48
2023-10-20T02:52:51.271Z,88.50
2023-10-20T02:54:55.067Z,88.07
2023-10-20T02:56:58.417Z,88.36
2023-10-20T02:59:00.841Z,88.24
2023-10-20T03:01:09.334Z,88.17
2023-10-20T03:03:14.308Z,88.43
2023-10-20T03:05:17.529Z,88.47
2023-10-20T03:07:26.218Z,88.03
2023-10-20T03:09:28.872Z,88.43
2023-10-20T03:11:32.983Z,88.29
2023-10-20T03:13:37.009Z,88.15
2023-10-20T03:15:39.921Z,88.22
2023-10-20T03:17:43.209Z,88.19
2023-10-20T03:19:50.482Z,88.21
2023-10-20T03:21:53.919Z,88.16
2023-10-20T03:23:56.443Z,88.28
2023-10-20T03:25:59.026Z,88.20
2023-10-20T03:28:03.457Z,88.08
2023-10-20T03:30:07.706Z,87.83
2023-10-20T03:32:12.120Z,87.84
2023-10-20T03:34:14.750Z,87.87
2023-10-20T03:36:18.008Z,87.88
2023-10-20T03:38:20.982Z,87.84
2023-10-20T03:40:32.588Z,87.72
2023-10-20T03:42:35.228Z,87.40
2023-10-20T03:44:38.702Z,87.70
2023-10-20T03:46:50.039Z,87.57
2023-10-20T03:48:52.510Z,87.45
2023-10-20T03:50:55.500Z,87.58
2023-10-20T03:52:58.453Z,87.55
2023-10-20T03:55:01.783Z,87.47
2023-10-20T03:57:05.468Z,87.26
2023-10-20T03:59:08.055Z,87.29
2023-10-20T04:01:11.241Z,87.22
2023-10-20T04:03:14.235Z,87.30
2023-10-20T04:05:18.068Z,87.21
2023-10-20T04:07:21.432Z,87.50
2023-10-20T04:09:24.585Z,87.02
2023-10-20T04:11:27.122Z,87.39
2023-10-20T04:13:31.303Z,87.23
2023-10-20T04:15:37.930Z,87.24
2023-10-20T04:17:42.091Z,86.82
2023-10-20T04:19:44.915Z,87.27
2023-10-20T04:21:47.469Z,87.07
2023-10-20T04:23:50.266Z,87.02
2023-10-20T04:25:56.501Z,87.10
2023-10-20T04:27:59.766Z,87.13
2023-10-20T04:30:21.442Z,87.08
2023-10-20T04:32:42.759Z,86.77
2023-10-20T04:35:04.444Z,87.61
2023-10-20T04:37:25.890Z,87.10
2023-10-20T04:39:47.249Z,86.78
2023-10-20T04:42:01.237Z,87.06
2023-10-20T04:44:16.540Z,86.61
2023-10-20T04:46:38.916Z,86.77
2023-10-20T04:49:00.424Z,86.92
2023-10-20T04:51:19.102Z,87.44
2023-10-20T04:53:37.428Z,86.78
2023-10-20T04:55:59.271Z,86.92
2023-10-20T04:58:28.832Z,86.71
2023-10-20T05:00:38.077Z,86.91
2023-10-20T05:02:52.707Z,86.85
2023-10-20T05:04:56.542Z,86.76
2023-10-20T05:07:10.952Z,86.58
2023-10-20T05:09:17.589Z,86.71
2023-10-20T05:11:21.281Z,86.69
2023-10-20T05:13:24.800Z,86.47
2023-10-20T05:15:28.089Z,86.57
2023-10-20T05:17:33.852Z,86.60
2023-10-20T05:19:38.079Z,86.50
2023-10-20T05:21:41.443Z,86.47
2023-10-20T05:23:45.539Z,86.45
2023-10-20T05:25:51.493Z,86.69
2023-10-20T05:27:53.994Z,86.42
2023-10-20T05:29:57.072Z,87.04
2023-10-20T05:32:00.642Z,85.78
2023-10-20T05:34:03.372Z,86.75
2023-10-20T05:36:07.240Z,86.50
2023-10-20T05:38:10.947Z,86.26
2023-10-20T05:40:17.495Z,86.33
2023-10-20T05:42:21.129Z,86.57
2023-10-20T05:44:25.150Z,86.36
2023-10-20T05:46:28.083Z,86.53
2023-10-20T05:48:30.657Z,86.45
2023-10-20T05:50:40.577Z,86.59
2023-10-20T05:52:43.756Z,86.41
2023-10-20T05:54:47.509Z,86.37
2023-10-20T05:56:50.649Z,86.60
2023-10-20T05:58:59.087Z,86.47
2023-10-20T06:01:11.356Z,86.19
2023-10-20T06:03:16.052Z,86.30
2023-10-20T06:05:20.594Z,86.39
2023-10-20T06:07:23.233Z,86.48
2023-10-20T06:09:26.866Z,86.15
2023-10-20T06:11:29.665Z,86.42
2023-10-20T06:13:34.302Z,86.30
2023-10-20T06:15:37.395Z,86.57
2023-10-20T06:17:40.278Z,86.63
2023-10-20T06:19:43.340Z,86.60
2023-10-20T06:21:46.731Z,86.89
2023-10-20T06:23:51.379Z,86.86
2023-10-20T06:25:53.990Z,87.01
2023-10-20T06:27:56.920Z,86.82
2023-10-20T06:30:08.267Z,86.75
2023-10-20T06:32:23.880Z,86.63
2023-10-20T06:34:26.621Z,86.94
2023-10-20T06:36:29.441Z,86.66
2023-10-20T06:38:35.752Z,86.64
2023-10-20T06:40:40.131Z,86.77
2023-10-20T06:42:46.181Z,86.42
2023-10-20T06:44:50.205Z,86.38
2023-10-20T06:46:54.535Z,86.61
2023-10-20T06:48:58.333Z,86.55
2023-10-20T06:51:01.973Z,86.24
2023-10-20T06:53:06.402Z,86.48
2023-10-20T06:55:42.654Z,86.58
2023-10-20T06:57:52.191Z,86.14
2023-10-20T06:59:55.042Z,86.40
2023-10-20T07:02:01.892Z,86.36
2023-10-20T07:04:08.007Z,86.69
2023-10-20T07:06:12.826Z,86.51
2023-10-20T07:08:15.551Z,86.60
2023-10-20T07:10:20.241Z,86.73
2023-10-20T07:12:23.879Z,86.57
2023-10-20T07:14:26.663Z,86.37
2023-10-20T07:16:29.763Z,86.63
2023-10-20T07:18:33.898Z,86.52
2023-10-20T07:20:40.409Z,86.86
2023-10-20T07:22:43.244Z,86.19
2023-10-20T07:24:47.088Z,86.53
2023-10-20T07:26:51.104Z,86.34
2023-10-20T07:28:54.836Z,86.40
2023-10-20T07:30:57.802Z,86.41
2023-10-20T07:33:00.763Z,86.63
2023-10-20T07:35:04.942Z,86.52
2023-10-20T07:37:08.249Z,86.51
2023-10-20T07:39:10.783Z,86.55
2023-10-20T07:41:14.834Z,86.63
2023-10-20T07:43:17.660Z,86.17
2023-10-20T07:45:20.449Z,86.31
2023-10-20T07:47:29.808Z,86.49
2023-10-20T07:49:33.156Z,86.06
2023-10-20T07:51:36.363Z,86.17
2023-10-20T07:53:39.366Z,86.47
2023-10-20T07:55:43.638Z,86.13
2023-10-20T07:57:46.131Z,86.58
2023-10-20T07:59:49.201Z,86.47
2023-10-20T08:01:52.235Z,86.25
2023-10-20T08:03:55.071Z,86.20
2023-10-20T08:06:01.729Z,86.49
2023-10-20T08:08:06.242Z,86.29
2023-10-20T08:10:10.353Z,86.13
2023-10-20T08:12:13.115Z,86.00
2023-10-20T08:14:15.677Z,86.45
2023-10-20T08:16:21.890Z,86.16
2023-10-20T08:18:24.717Z,85.96
2023-10-20T08:20:27.805Z,86.33
2023-10-20T08:22:31.064Z,85.96
2023-10-20T08:24:34.461Z,86.19
2023-10-20T08:26:37.235Z,86.28
2023-10-20T08:28:39.941Z,86.02
2023-10-20T08:30:43.026Z,86.44
2023-10-20T08:32:46.674Z,86.07
2023-10-20T08:34:50.020Z,86.10
2023-10-20T08:36:52.668Z,86.38
2023-10-20T08:38:55.173Z,86.53
2023-10-20T08:41:12.381Z,86.31
2023-10-20T08:43:17.670Z,86.60
2023-10-20T08:45:25.041Z,86.43
2023-10-20T08:47:29.347Z,86.63
2023-10-20T08:49:33.731Z,86.86
2023-10-20T08:51:40.273Z,87.23
2023-10-20T08:53:43.745Z,87.26
2023-10-20T08:55:46.882Z,87.88
2023-10-20T08:57:49.478Z,87.84
2023-10-20T08:59:52.814Z,88.58
2023-10-20T09:01:56.147Z,88.31
2023-10-20T09:04:02.609Z,88.31
2023-10-20T09:06:07.442Z,87.66
2023-10-20T09:08:10.150Z,87.97
2023-10-20T09:10:12.999Z,88.06
2023-10-20T09:12:16.154Z,87.78
2023-10-20T09:14:19.504Z,87.66
2023-10-20T09:16:23.060Z,87.85
2023-10-20T09:18:27.590Z,87.99
2023-10-20T09:20:31.016Z,87.68
2023-10-20T09:22:33.721Z,87.80
2023-10-20T09:24:36.430Z,88.22
2023-10-20T09:26:40.545Z,88.14
2023-10-20T09:28:50.110Z,88.06
2023-10-20T09:30:55.722Z,87.71
2023-10-20T09:32:59.346Z,87.94
2023-10-20T09:35:02.274Z,87.65
2023-10-20T09:37:06.351Z,87.52
2023-10-20T09:39:13.089Z,88.04
2023-10-20T09:41:17.156Z,88.32
2023-10-20T09:43:32.365Z,88.03
2023-10-20T09:45:42.796Z,88.19
2023-10-20T09:47:48.250Z,87.61
2023-10-20T09:49:53.456Z,88.23
2023-10-20T09:51:58.715Z,87.83
2023-10-20T09:54:03.201Z,88.46
2023-10-20T09:56:07.328Z,87.99
2023-10-20T09:58:10.696Z,87.55
2023-10-20T10:00:14.554Z,87.84
2023-10-20T10:02:30.191Z,87.60
2023-10-20T10:04:42.945Z,87.84
2023-10-20T10:06:49.014Z,87.81
2023-10-20T10:08:54.798Z,87.39
2023-10-20T10:10:58.223Z,87.41
2023-10-20T10:13:09.205Z,86.96
2023-10-20T10:15:15.833Z,87.01
2023-10-20T10:17:24.005Z,87.52
2023-10-20T10:19:30.003Z,87.10
2023-10-20T10:21:32.832Z,87.76
2023-10-20T10:23:36.011Z,87.10
2023-10-20T10:25:42.007Z,86.91
2023-10-20T10:27:44.666Z,87.02
2023-10-20T10:29:55.415Z,87.34
2023-10-20T10:32:09.382Z,87.14
2023-10-20T10:34:13.060Z,87.44
2023-10-20T10:36:16.088Z,87.17
2023-10-20T10:38:32.151Z,86.63
2023-10-20T10:40:36.548Z,87.24
2023-10-20T10:42:48.803Z,87.83
2023-10-20T10:44:51.599Z,87.11
2023-10-20T10:46:54.852Z,87.33
2023-10-20T10:49:11.688Z,87.18
2023-10-20T10:51:14.486Z,87.32
2023-10-20T10:53:17.087Z,87.72
2023-10-20T10:55:20.898Z,87.26
2023-10-20T10:57:24.716Z,87.07
2023-10-20T10:59:28.916Z,87.54
2023-10-20T11:01:32.898Z,87.83
2023-10-20T11:03:36.131Z,87.90
2023-10-20T11:05:40.832Z,87.47
2023-10-20T11:07:59.226Z,87.98
2023-10-20T11:10:03.458Z,88.61
2023-10-20T11:12:07.319Z,88.72
2023-10-20T11:14:12.751Z,88.92
2023-10-20T11:16:15.982Z,88.48
2023-10-20T11:18:22.291Z,88.60
2023-10-20T11:20:26.116Z,88.92
2023-10-20T11:22:29.316Z,88.99
2023-10-20T11:24:37.860Z,88.68
2023-10-20T11:26:40.887Z,89.24
2023-10-20T11:28:45.780Z,89.30
2023-10-20T11:30:48.609Z,89.60
2023-10-20T11:32:51.259Z,89.77
2023-10-20T11:34:54.795Z,89.34
2023-10-20T11:36:57.715Z,89.48
2023-10-20T11:39:27.069Z,89.10
2023-10-20T11:41:30.425Z,89.16
2023-10-20T11:43:33.597Z,89.59
2023-10-20T11:45:36.393Z,89.65
2023-10-20T11:47:40.443Z,89.64
2023-10-20T11:49:43.547Z,89.97
2023-10-20T11:51:46.906Z,89.63
2023-10-20T11:53:49.684Z,89.56
2023-10-20T11:55:53.681Z,89.00
2023-10-20T11:57:59.256Z,89.57
2023-10-20T12:00:09.251Z,89.86
2023-10-20T12:02:15.684Z,89.46
2023-10-20T12:04:19.106Z,89.11
2023-10-20T12:06:22.242Z,89.40
2023-10-20T12:08:25.611Z,89.25
2023-10-20T12:10:28.857Z,89.87
2023-10-20T12:12:33.034Z,89.85
2023-10-20T12:14:35.840Z,90.18
2023-10-20T12:16:39.250Z,90.09
2023-10-20T12:18:47.115Z,89.86
2023-10-20T12:20:50.009Z,90.13
2023-10-20T12:22:56.723Z,89.78
2023-10-20T12:24:59.671Z,89.53
2023-10-20T12:27:03.470Z,90.17
2023-10-20T12:29:06.759Z,89.78
2023-10-20T12:31:10.468Z,89.88
2023-10-20T12:33:14.022Z,90.02
2023-10-20T12:35:18.529Z,89.92
2023-10-20T12:37:22.203Z,89.66
2023-10-20T12:39:24.741Z,89.51
2023-10-20T12:41:27.360Z,89.60
2023-10-20T12:43:30.554Z,89.87
2023-10-20T12:45:34.533Z,89.75
2023-10-20T12:47:38.406Z,89.46
2023-10-20T12:49:41.261Z,89.69
2023-10-20T12:51:45.213Z,89.89
2023-10-20T12:53:50.810Z,89.72
2023-10-20T12:56:04.170Z,89.22
2023-10-20T12:58:16.143Z,89.24
2023-10-20T13:00:21.033Z,89.17
2023-10-20T13:02:24.696Z,89.83
2023-10-20T13:04:28.073Z,89.38
2023-10-20T13:06:37.293Z,89.75
2023-10-20T13:08:47.537Z,89.32
2023-10-20T13:10:51.055Z,89.22
2023-10-20T13:12:56.895Z,89.34
2023-10-20T13:15:02.782Z,89.85
2023-10-20T13:17:06.729Z,89.58
2023-10-20T13:19:09.298Z,89.80
2023-10-20T13:21:13.555Z,89.39
2023-10-20T13:23:16.352Z,89.50
2023-10-20T13:25:21.398Z,89.09
2023-10-20T13:27:24.657Z,89.33
2023-10-20T13:29:27.456Z,89.44
2023-10-20T13:31:30.557Z,89.63
2023-10-20T13:33:33.954Z,89.80
2023-10-20T13:35:42.403Z,89.80
2023-10-20T13:37:46.198Z,89.35
2023-10-20T13:39:50.086Z,89.85
2023-10-20T13:42:03.884Z,90.09
2023-10-20T13:44:09.077Z,89.85
2023-10-20T13:46:19.882Z,90.10
2023-10-20T13:48:22.987Z,89.77
2023-10-20T13:50:25.922Z,89.83
2023-10-20T13:52:28.852Z,89.85
2023-10-20T13:54:31.709Z,89.83
2023-10-20T13:56:34.761Z,89.86
2023-10-20T13:58:37.626Z,90.06
2023-10-20T14:00:40.498Z,90.03
2023-10-20T14:02:44.291Z,89.66
2023-10-20T14:04:47.605Z,89.69
2023-10-20T14:06:52.176Z,89.49
2023-10-20T14:08:55.235Z,89.51
2023-10-20T14:11:02.028Z,89.41
2023-10-20T14:13:06.859Z,89.10
2023-10-20T14:15:10.285Z,89.21
2023-10-20T14:17:13.832Z,89.54
2023-10-20T14:19:17.095Z,89.23
2023-10-20T14:21:20.025Z,89.03
2023-10-20T14:23:28.673Z,89.16
2023-10-20T14:25:31.296Z,89.03
2023-10-20T14:27:40.055Z,88.98
2023-10-20T14:29:43.776Z,88.72
2023-10-20T14:31:47.239Z,88.41
2023-10-20T14:33:50.093Z,88.59
2023-10-20T14:35:54.808Z,88.57
2023-10-20T14:37:58.344Z,88.05
2023-10-20T14:40:01.515Z,88.11
2023-10-20T14:42:05.248Z,87.82
2023-10-20T14:44:08.022Z,87.97
2023-10-20T14:46:11.311Z,87.65
2023-10-20T14:48:14.697Z,88.04
2023-10-20T14:50:17.805Z,88.30
2023-10-20T14:52:20.334Z,87.75
2023-10-20T14:54:23.154Z,87.84
2023-10-20T14:56:25.909Z,88.31
2023-10-20T14:58:29.116Z,88.13
2023-10-20T15:00:33.469Z,88.06
2023-10-20T15:02:36.509Z,87.98
2023-10-20T15:04:39.930Z,88.16
2023-10-20T15:06:43.145Z,87.98
2023-10-20T15:08:46.032Z,87.75
2023-10-20T15:10:49.129Z,87.48
2023-10-20T15:12:51.811Z,88.00
2023-10-20T15:14:55.832Z,88.67
2023-10-20T15:16:58.673Z,88.23
2023-10-20T15:19:02.171Z,88.86
2023-10-20T15:21:06.378Z,88.28
2023-10-20T15:23:18.071Z,88.05
2023-10-20T15:25:21.913Z,88.32
2023-10-20T15:27:24.714Z,88.23
2023-10-20T15:29:27.861Z,88.37
2023-10-20T15:31:30.796Z,88.85
2023-10-20T15:33:33.670Z,88.79
2023-10-20T15:35:40.975Z,88.98
2023-10-20T15:37:44.130Z,89.11
2023-10-20T15:39:53.139Z,88.68
2023-10-20T15:42:01.246Z,89.20
2023-10-20T15:44:05.132Z,88.96
2023-10-20T15:46:11.515Z,89.02
2023-10-20T15:48:14.576Z,89.09
2023-10-20T15:50:17.982Z,89.61
2023-10-20T15:52:20.717Z,89.81
2023-10-20T15:54:23.375Z,89.08
2023-10-20T15:56:26.592Z,89.08
2023-10-20T15:58:29.317Z,89.50
2023-10-20T16:00:35.218Z,89.32
2023-10-20T16:02:38.784Z,88.90
2023-10-20T16:04:41.797Z,88.75
2023-10-20T16:06:44.409Z,88.91
2023-10-20T16:08:47.311Z,89.02
2023-10-20T16:10:50.808Z,88.58
2023-10-20T16:12:54.051Z,88.47
2023-10-20T16:14:57.098Z,88.49
2023-10-20T16:17:00.000Z,88.42
2023-10-20T16:19:02.925Z,88.99
2023-10-20T16:21:06.379Z,88.90
2023-10-20T16:23:09.186Z,88.45
2023-10-20T16:25:11.885Z,88.68
2023-10-20T16:27:17.521Z,88.69
2023-10-20T16:29:22.052Z,88.30
2023-10-20T16:31:24.851Z,88.72
2023-10-20T16:33:29.324Z,87.73
2023-10-20T16:35:32.332Z,87.98
2023-10-20T16:37:35.607Z,88.02
2023-10-20T16:39:39.564Z,88.43
2023-10-20T16:41:43.685Z,88.26
2023-10-20T16:43:46.341Z,88.02
2023-10-20T16:45:49.446Z,87.97
2023-10-20T16:47:53.287Z,87.93
2023-10-20T16:49:56.330Z,87.74
2023-10-20T16:51:59.236Z,87.86
2023-10-20T16:54:02.620Z,87.36
2023-10-20T16:56:08.281Z,87.07
2023-10-20T16:58:11.474Z,87.14
2023-10-20T17:00:15.144Z,87.22
2023-10-20T17:02:17.645Z,86.98
2023-10-20T17:04:21.480Z,86.73
2023-10-20T17:06:24.631Z,86.79
2023-10-20T17:08:28.578Z,86.99
2023-10-20T17:10:31.343Z,87.03
2023-10-20T17:12:34.395Z,87.41
2023-10-20T17:14:37.369Z,87.69
2023-10-20T17:16:44.424Z,87.39
2023-10-20T17:18:48.989Z,87.09
2023-10-20T17:20:53.629Z,87.13
2023-10-20T17:22:56.451Z,87.14
2023-10-20T17:24:59.496Z,87.31
2023-10-20T17:27:04.405Z,87.51
2023-10-20T17:29:07.231Z,87.86
2023-10-20T17:31:11.289Z,88.31
2023-10-20T17:33:14.188Z,88.01
2023-10-20T17:35:17.267Z,88.26
2023-10-20T17:37:20.068Z,88.01
2023-10-20T17:39:22.887Z,87.89
2023-10-20T17:41:26.350Z,88.00
2023-10-20T17:43:29.623Z,88.09
2023-10-20T17:45:32.509Z,88.19
2023-10-20T17:47:35.907Z,87.48
2023-10-20T17:49:39.070Z,87.08
2023-10-20T17:51:43.100Z,87.11
2023-10-20T17:53:45.921Z,87.53
2023-10-20T17:55:50.197Z,87.51
2023-10-20T17:57:53.031Z,88.11
2023-10-20T17:59:56.214Z,87.90
2023-10-20T18:01:59.321Z,87.70
2023-10-20T18:04:04.020Z,87.39
2023-10-20T18:06:10.842Z,87.27
2023-10-20T18:08:14.165Z,87.54
2023-10-20T18:10:16.890Z,87.41
2023-10-20T18:12:19.584Z,86.71
2023-10-20T18:14:22.880Z,87.20
2023-10-20T18:16:27.608Z,86.57
2023-10-20T18:18:30.786Z,87.08
2023-10-20T18:20:33.802Z,86.96
2023-10-20T18:22:36.410Z,87.39
2023-10-20T18:24:39.520Z,86.90
2023-10-20T18:26:42.328Z,87.70
2023-10-20T18:28:45.783Z,87.18
2023-10-20T18:30:48.852Z,86.76
2023-10-20T18:32:51.751Z,87.05
2023-10-20T18:34:54.840Z,87.26
2023-10-20T18:36:59.377Z,87.28
2023-10-20T18:39:02.251Z,87.20
2023-10-20T18:41:05.253Z,87.19
2023-10-20T18:43:08.706Z,87.01
2023-10-20T18:45:11.717Z,87.74
2023-10-20T18:47:15.195Z,87.21
2023-10-20T18:49:18.982Z,87.11
2023-10-20T18:51:22.467Z,87.39
2023-10-20T18:53:26.234Z,87.39
2023-10-20T18:55:29.054Z,87.48
2023-10-20T18:57:31.885Z,88.14
2023-10-20T18:59:35.078Z,88.11
2023-10-20T19:01:39.105Z,88.12
2023-10-20T19:03:42.775Z,87.93
2023-10-20T19:05:45.814Z,87.95
2023-10-20T19:07:49.059Z,87.48
2023-10-20T19:09:55.640Z,87.78
2023-10-20T19:11:58.594Z,87.79
2023-10-20T19:14:01.671Z,87.67
2023-10-20T19:16:06.461Z,87.63
2023-10-20T19:18:09.567Z,87.22
2023-10-20T19:20:15.242Z,87.46
2023-10-20T19:22:19.279Z,87.36
2023-10-20T19:24:24.351Z,87.01
2023-10-20T19:26:27.169Z,87.29
2023-10-20T19:28:31.226Z,87.58
2023-10-20T19:30:38.071Z,87.66
2023-10-20T19:32:40.834Z,87.73
2023-10-20T19:34:44.289Z,87.32
2023-10-20T19:36:47.526Z,86.89
2023-10-20T19:38:50.555Z,87.09
2023-10-20T19:40:55.310Z,86.71
2023-10-20T19:42:58.194Z,86.71
2023-10-20T19:45:03.233Z,86.57
2023-10-20T19:47:06.851Z,86.81
2023-10-20T19:49:09.756Z,87.22
2023-10-20T19:51:13.221Z,86.81
2023-10-20T19:53:16.122Z,87.21
2023-10-20T19:55:19.427Z,87.13
2023-10-20T19:57:22.210Z,87.36
2023-10-20T19:59:26.459Z,86.64
2023-10-20T20:01:29.590Z,87.04
2023-10-20T20:03:32.702Z,86.72
2023-10-20T20:05:35.860Z,87.00
2023-10-20T20:07:38.886Z,86.88
2023-10-20T20:09:42.020Z,86.61
2023-10-20T20:11:45.648Z,86.54
2023-10-20T20:13:48.627Z,86.93
2023-10-20T20:15:51.859Z,87.14
2023-10-20T20:17:58.161Z,87.42
2023-10-20T20:20:01.749Z,87.33
2023-10-20T20:22:04.716Z,87.08
2023-10-20T20:24:08.565Z,86.90
2023-10-20T20:26:11.310Z,87.14
2023-10-20T20:28:14.601Z,87.00
2023-10-20T20:30:18.088Z,87.02
2023-10-20T20:32:21.608Z,87.02
2023-10-20T20:34:24.575Z,86.86
2023-10-20T20:36:27.464Z,86.75
2023-10-20T20:38:30.323Z,86.56
2023-10-20T20:40:34.233Z,87.05
2023-10-20T20:42:36.881Z,86.45
2023-10-20T20:44:39.990Z,86.39
2023-10-20T20:46:43.007Z,86.72
2023-10-20T20:48:47.433Z,86.35
2023-10-20T20:50:51.414Z,85.97
2023-10-20T20:52:54.084Z,85.63
2023-10-20T20:54:58.081Z,86.39
2023-10-20T20:57:01.179Z,86.46
2023-10-20T20:59:04.611Z,86.52
2023-10-20T21:01:11.579Z,86.28
2023-10-20T21:03:15.911Z,86.32
2023-10-20T21:05:18.677Z,86.73
2023-10-20T21:07:22.144Z,86.24
2023-10-20T21:09:25.292Z,86.26
2023-10-20T21:11:28.542Z,86.76
2023-10-20T21:13:31.534Z,86.05
2023-10-20T21:15:38.578Z,86.89
2023-10-20T21:17:41.151Z,86.35
2023-10-20T21:19:45.619Z,86.12
2023-10-20T21:21:48.301Z,86.05
2023-10-20T21:23:53.817Z,85.81
2023-10-20T21:26:01.487Z,85.99
2023-10-20T21:28:05.319Z,86.27
2023-10-20T21:30:09.924Z,85.66
2023-10-20T21:32:12.929Z,86.08
2023-10-20T21:34:15.978Z,86.08
2023-10-20T21:36:18.837Z,86.52
2023-10-20T21:38:22.003Z,86.74
2023-10-20T21:40:24.805Z,86.34
2023-10-20T21:42:29.080Z,86.88
2023-10-20T21:44:32.287Z,86.58
2023-10-20T21:46:36.544Z,86.34
2023-10-20T21:48:39.691Z,86.44
2023-10-20T21:50:42.533Z,86.75
2023-10-20T21:52:45.077Z,86.58
2023-10-20T21:54:47.672Z,86.82
2023-10-20T21:56:50.473Z,87.07
2023-10-20T21:58:53.290Z,87.89
2023-10-20T22:00:56.726Z,88.59
2023-10-20T22:03:00.250Z,88.25
2023-10-20T22:05:03.722Z,88.46
2023-10-20T22:07:06.225Z,89.24
2023-10-20T22:09:10.102Z,88.14
2023-10-20T22:11:12.888Z,88.43
2023-10-20T22:13:15.757Z,88.48
2023-10-20T22:15:20.540Z,87.97
2023-10-20T22:17:23.015Z,87.94
2023-10-20T22:19:26.142Z,87.66
2023-10-20T22:21:29.983Z,87.43
2023-10-20T22:23:32.834Z,87.78
2023-10-20T22:25:36.914Z,87.01
2023-10-20T22:27:39.643Z,87.31
2023-10-20T22:29:42.488Z,86.95
2023-10-20T22:31:45.702Z,87.25
2023-10-20T22:33:48.662Z,86.67
2023-10-20T22:35:51.678Z,87.07
2023-10-20T22:37:54.198Z,86.67
2023-10-20T22:39:57.831Z,87.39
2023-10-20T22:42:01.507Z,86.80
2023-10-20T22:44:05.010Z,86.95
2023-10-20T22:46:07.683Z,87.09
2023-10-20T22:48:10.817Z,86.68
2023-10-20T22:50:19.706Z,86.94
2023-10-20T22:52:22.185Z,86.87
2023-10-20T22:54:25.045Z,87.17
2023-10-20T22:56:27.592Z,86.54
2023-10-20T22:58:30.185Z,87.15
2023-10-20T23:00:33.225Z,87.48
2023-10-20T23:02:38.011Z,87.03
2023-10-20T23:04:41.175Z,87.22
2023-10-20T23:06:43.919Z,87.90
2023-10-20T23:08:46.533Z,87.72
2023-10-20T23:10:49.155Z,87.97
2023-10-20T23:12:52.336Z,88.11
2023-10-20T23:14:54.820Z,87.77
2023-10-20T23:16:57.658Z,88.13
2023-10-20T23:19:01.154Z,87.86
2023-10-20T23:21:04.053Z,87.31
2023-10-20T23:23:07.195Z,87.81
2023-10-20T23:25:10.116Z,87.24
2023-10-20T23:27:12.985Z,87.74
2023-10-20T23:29:16.018Z,87.29
2023-10-20T23:31:20.240Z,87.36
2023-10-20T23:33:23.483Z,87.44
2023-10-20T23:35:27.045Z,87.67
2023-10-20T23:37:29.604Z,87.05
2023-10-20T23:39:34.744Z,87.19
2023-10-20T23:41:37.965Z,86.83
2023-10-20T23:43:40.532Z,86.53
2023-10-20T23:45:44.944Z,86.61
2023-10-20T23:47:48.255Z,86.53
2023-10-20T23:49:51.984Z,86.66
2023-10-20T23:51:55.813Z,86.80
2023-10-20T23:53:58.743Z,86.89
2023-10-20T23:56:01.534Z,86.92
2023-10-20T23:58:04.576Z,86.93
